Matías Martínez

Chief Scout - Lanús
6 Dec 2026
Sunday
Process

Personality

Adaptability (15) Ambition (19) Controversy (3) Loyalty (14) Pressure (12) Professionalism (13) Sportsmanship (4) Temperament (5)

Profile

Coaching Style Democratic
License National B
Determination 9
Man Management 5
Motivating 13
Discipline 11
Job Satisfaction
78%
Fatigue
0%
Role Chief Scout
Wage 22.6K p/w
Contract 14.03.2030

Performance

Behaviour Good
Training Effectiveness
33%
Player Development
55%
Injury Prevention
70%
Tactical Implementation
45%

Recent Events

Attended a recruitment meeting now
Attended a recruitment meeting now
Attended a recruitment meeting now
Attended a recruitment meeting now
Attended a recruitment meeting now
Attended a recruitment meeting now
Attended a recruitment meeting now
Presented a dossier to the board now

Currently Monitoring

138
Player Club Status Ability Confidence Watched Last Observed Latest Vote
Yousef Salech Cardiff City Active 125 / 118 40% 1 02.12.2026 -
Kwadwo Duah Ludogorets Active 137 / 124 40% 1 02.12.2026 -
Raúl Rangel Braga Report Ready 132 / 132 66% 1 01.12.2026 -
Exequiel Zeballos Monza Active 135 / 120 40% 2 30.11.2026 -
Johannes Eggestein Austria Wien Active 141 / 129 40% 1 30.11.2026 -
Christian Kouamé Aris Thessaloniki Active 133 / 134 40% 1 28.11.2026 -
Musa Barrow Al-Khaleej Active 157 / 148 40% 4 27.11.2026 -
Luca Langoni New England Revolution Active 144 / 118 40% 3 27.11.2026 Monitor
Sergio Arribas Almería Active 146 / 130 40% 1 27.11.2026 -
Gonzalo Plata Dinamo Moscow Active 120 / 118 40% 1 27.11.2026 -
Julián Quiñones Al-Qadisiyah Active 141 / 150 40% 5 26.11.2026 Monitor
Tyrese Campbell Sheffield United Active 118 / 142 40% 1 26.11.2026 -
Oli McBurnie Hull City Active 142 / 150 40% 4 24.11.2026 -
Tyrick Mitchell Crystal Palace Active 146 / 140 40% 1 24.11.2026 -
Valentín Gómez Betis Active 145 / 127 40% 1 24.11.2026 -
Matías Vargas Gimnasia y Esgrima Active 143 / 120 40% 4 23.11.2026 -
Lorenzo Colombo Genoa Active 153 / 132 40% 1 23.11.2026 -
Ángel Correa River Plate Active 138 / 136 40% 6 21.11.2026 -
Yorbe Vertessen Red Bull Salzburg Active 118 / 127 40% 1 20.11.2026 -
Cucho Hernández Betis Active 152 / 156 40% 5 19.11.2026 -
Ivan Toney Al-Ahli Active 166 / 155 40% 2 19.11.2026 Needs More Info
Hwang Hee-Chan Wolverhampton Active 150 / 122 40% 3 18.11.2026 -
Ferland Mendy Real Madrid Active 133 / 133 40% 2 18.11.2026 -
Jackson Muleka Konyaspor Active 135 / 141 40% 1 18.11.2026 -
Alexandru Stanciu Pandurii Active 125 / 147 40% 1 18.11.2026 Needs More Info
Luka Jović CFR Cluj Active 138 / 136 40% 4 16.11.2026 -
Juan Brunetta Tigres Active 147 / 151 40% 6 15.11.2026 -
Marcelo Allende Mamelodi Sundowns Active 148 / 145 40% 1 15.11.2026 -
Fiete Arp OB Active 118 / 142 40% 3 14.11.2026 -
Callum O'Hare Sheffield United Active 119 / 136 40% 1 14.11.2026 -
Leandro Trossard Besiktas Active 166 / 172 40% 5 13.11.2026 -
Wessam Abou Ali Columbus Crew Active 120 / 122 40% 2 12.11.2026 -
Stav Toriel Hapoel Tel Aviv Active 136 / 112 40% 1 12.11.2026 -
Karim Konaté Red Bull Salzburg Negotiating 138 / 153 40% 3 11.11.2026 -
Alexey Miranchuk Atlanta United FC Active 153 / 137 40% 5 10.11.2026 -
Flynn Downes Southampton Active 139 / 135 40% 2 10.11.2026 -
Mauro Arambarri River Plate Active 148 / 151 40% 2 10.11.2026 -
Soufiane Rahimi Al Ain Active 140 / 123 40% 1 10.11.2026 -
Thiago Almada River Plate Active 158 / 147 40% 1 10.11.2026 Needs More Info
Manu Morlanes Mallorca Active 119 / 121 40% 1 08.11.2026 -
Teboho Mokoena Mamelodi Sundowns Active 127 / 116 40% 1 08.11.2026 -
Patrick Cutrone Monza Active 113 / 122 40% 2 05.11.2026 -
George Hirst Stoke City Active 127 / 118 40% 1 05.11.2026 -
Leo Ceara Kashima Antlers Active 149 / 129 40% 4 04.11.2026 -
Felipe Augusto Zenit Active 126 / 140 40% 2 04.11.2026 -
Joe Gelhardt Hull City Active 120 / 129 40% 2 03.11.2026 Needs More Info
Luciano Gondou CSKA Moscow Active 130 / 117 40% 1 02.11.2026 -
Dani Raba Hajduk Split Active 133 / 123 40% 2 01.11.2026 -
Kerem Aktürkoğlu Fenerbahce Active 130 / 153 40% 3 25.10.2026 -
Fashion Sakala Al-Fayha Active 110 / 116 40% 1 25.10.2026 -
Jaminton Campaz Rosario Central Active 119 / 125 40% 1 24.10.2026 -
Morgan Whittaker Middlesbrough Active 144 / 139 40% 1 24.10.2026 -
Taiwo Awoniyi Coventry City Active 152 / 127 40% 1 24.10.2026 -
Ilyas Ansah Hull City Active 110 / 128 40% 1 23.10.2026 -
Myrto Uzuni Austin FC Active 144 / 147 40% 1 23.10.2026 -
Azor Matusiwa Ipswich Town Active 142 / 149 40% 1 23.10.2026 -
Nicolò Tresoldi Club Brugge Active 151 / 132 40% 2 20.10.2026 -
Afimico Pululu Al-Hazem Active 114 / 128 40% 1 20.10.2026 -
Dávid Strelec Middlesbrough Active 137 / 149 40% 1 19.10.2026 -
Zian Flemming Ipswich Town Active 113 / 124 40% 2 18.10.2026 -
Alan Velasco Boca Juniors Active 135 / 136 40% 1 17.10.2026 -
Yuma Suzuki Kashima Antlers Active 150 / 127 40% 4 16.10.2026 -
Dániel Gazdag New England Revolution Active 140 / 132 40% 2 15.10.2026 -
Mohamed-Ali Cho Hull City Active 133 / 150 40% 1 13.10.2026 -
Hany Mukhtar Urawa Reds Active 118 / 149 40% 1 13.10.2026 -
Salem Ismail Al Shabab Lost 155 / 140 40% 1 11.10.2026 -
Edu Expósito Espanyol Active 152 / 154 40% 1 11.10.2026 Needs More Info
Viktor Baier Viktoria Plzen Active 119 / 135 40% 1 09.10.2026 -
Vladimir Nazarov Pakhtakor Active 108 / 103 40% 1 09.10.2026 -
Santiago Murillo La Equidad Active 131 / 128 40% 1 09.10.2026 -
Ander Guevara Racing Genk Active 117 / 142 40% 1 09.10.2026 -
Maurits Kjærgaard Red Bull Salzburg Active 125 / 134 40% 1 05.10.2026 -
Petar Musa FC Dallas Active 121 / 150 40% 2 04.10.2026 -
Haji Wright Coventry City Active 117 / 140 40% 1 03.10.2026 -
Breel Embolo Atlanta United FC Active 151 / 125 40% 2 01.10.2026 -
Jordan García Leon Active 97 / 119 40% 2 29.09.2026 -
Lukáš Horníček Newcastle United Active 141 / 149 40% 1 29.09.2026 -
Ivan Pakholiuk Kolos Active 122 / 122 40% 1 27.09.2026 -
Jorge Luque Deportivo Riestra Active 104 / 118 40% 1 27.09.2026 -
Erison Kawasaki Frontale Active 133 / 144 40% 1 25.09.2026 -
Germán Berterame Inter Miami CF Active 129 / 120 40% 1 23.09.2026 -
Kasper Høgh Bloemfontein Celtic Active 116 / 140 40% 2 22.09.2026 -
Eduardo Lozano Veracruz Active 142 / 147 40% 3 20.09.2026 -
Kein Sato FC Tokyo Active 150 / 116 40% 1 20.09.2026 -
Nicolás Castro Toluca Active 143 / 125 40% 1 20.09.2026 -
Carlos Álvarez Club America Active 141 / 125 40% 1 20.09.2026 -
Lucas Cuevas Rosario Central Active 99 / 99 40% 2 19.09.2026 -
Ottó Hindrich Legia Active 124 / 105 40% 1 19.09.2026 -
Barış Alper Yılmaz Galatasaray Active 159 / 150 40% 3 18.09.2026 -
Mateo Clemente San Lorenzo Active 113 / 107 40% 1 17.09.2026 -
Alejandro Piedrahita Deportivo Pereira Active 113 / 121 40% 1 17.09.2026 -
Esteban Obregón Montevideo City Torque Active 109 / 126 40% 1 17.09.2026 -
Lois Vanaken KV Oostende Active 133 / 141 40% 1 16.09.2026 -
Dion Beljo Dinamo Zagreb Active 114 / 142 40% 1 16.09.2026 -
Tomáš Chorý Slavia Prague Active 124 / 151 40% 1 13.09.2026 -
Vahid Ghoddos Padideh Active 122 / 132 40% 1 12.09.2026 -
Strahinja Manojlović Radnicki Nis Active 111 / 95 40% 1 11.09.2026 -
Jesús Angulo Tigres Active 118 / 133 40% 1 11.09.2026 -
Felipe Valencia Cortulua Active 128 / 132 40% 1 11.09.2026 -
Luis Rodriguez Cortulua Active 132 / 122 40% 1 10.09.2026 -
Mateo Zuleta Once Caldas Active 125 / 127 40% 1 10.09.2026 -
Nathan Silva Pumas UNAM Active 126 / 114 40% 1 08.09.2026 -
Erik Lira Cruz Azul Active 126 / 148 40% 1 08.09.2026 -
Youssef En-Nesyri Al-Ittihad Active 122 / 137 40% 1 06.09.2026 -
Santino Barbi Talleres Active 119 / 110 40% 1 06.09.2026 -
Victor Palacios La Equidad Active 126 / 138 40% 1 06.09.2026 -
Mojmír Chytil Slavia Prague Active 118 / 125 40% 3 04.09.2026 -
Toni Fruk Anderlecht Active 144 / 130 40% 1 04.09.2026 -
Steven Bergwijn Al-Ittihad Active 156 / 142 40% 2 01.09.2026 -
Matthieu Epolo Standard Liege Active 120 / 126 40% 1 01.09.2026 -
Filip Marschall Stevenage Active 117 / 115 40% 1 01.09.2026 -
Masoud Hajsafi Padideh Active 112 / 94 40% 1 30.08.2026 -
Lucas Ruiz Ferro Carril Oeste Active 102 / 100 40% 1 30.08.2026 -
Diego Rossi Monterrey Active 113 / 130 40% 3 29.08.2026 -
Federico Varese Racing Active 113 / 104 40% 1 28.08.2026 -
Heorhii Yermakov Metalist Active 112 / 101 40% 1 28.08.2026 -
Takuma Asano Sanfrecce Hiroshima Active 118 / 115 40% 1 27.08.2026 -
Franko Kolić Istra 1961 Active 103 / 119 40% 1 25.08.2026 -
Andreas Jungdal Westerlo Active 131 / 105 40% 1 21.08.2026 -
Gino Santilli Kalmar FF Active 98 / 114 40% 1 19.08.2026 -
Laureano Martínez Talleres Active 106 / 92 40% 1 19.08.2026 -
Ernest Muçi Trabzonspor Active 149 / 142 40% 1 16.08.2026 -
Jakub Surovčík Sparta Prague Active 100 / 126 40% 1 16.08.2026 -
Nicolás Bolcato Independiente Rivadavia Active 109 / 101 40% 1 15.08.2026 -
Roberto Fernández Braga Active 139 / 147 40% 1 13.08.2026 -
Martín Ojeda Orlando City Active 121 / 139 40% 1 13.08.2026 -
Carlos Rodríguez Cruz Azul Active 145 / 136 40% 1 12.08.2026 -
Kyrylo Fesiun Shakhtar Active 118 / 114 40% 1 12.08.2026 -
Kirian Las Palmas Active 132 / 119 40% 1 08.08.2026 -
Jesús Ricardo Angulo Toluca Active 124 / 118 40% 1 08.08.2026 -
Sam Surridge Nashville SC Active 115 / 119 40% 1 07.08.2026 -
Veljko Birmančević Ferencvaros Active 123 / 133 40% 1 07.08.2026 -
Luís Esteves Atlas Active 123 / 133 40% 1 07.08.2026 -
Chema Andrés Brighton Active 145 / 152 40% 1 07.08.2026 -
Svetoslav Vutsov Levski Active 125 / 130 40% 1 06.08.2026 -
Bertrand Traoré Sunderland Active 133 / 127 40% 3 05.08.2026 -
Rubén Duarte Pumas UNAM Active 147 / 128 40% 1 02.08.2026 -
Gabriel Jesus Barcelona Active 156 / 136 40% 1 02.08.2026 -